Time;durP1;ratioP1;P1;durP2;ratioP2;P2;SDS_P1;SDS_P2;PMS_P1;PMS_P2;Temp;Humidity;BMP_temperature;BMP_pressure;BME280_temperature;BME280_humidity;BME280_pressure;Samples;Min_cycle;Max_cycle;Signal;HPM_P1;HPM_P2
2022/09/12 06:33:09;;;;;;;16.30;8.90;;;17.10;1.00;;;;;;6247977;22;20024;-94
2022/09/12 06:39:27;;;;;;;6.45;5.15;;;17.20;1.00;;;;;;6239011;22;20068;-94
2022/09/12 07:11:56;;;;;;;22.67;14.13;;;17.20;1.00;;;;;;6241445;22;20086;-91
2022/09/12 07:14:30;;;;;;;15.13;9.45;;;17.20;1.00;;;;;;6249389;23;20068;-89
2022/09/12 07:17:34;;;;;;;19.30;11.80;;;17.20;1.00;;;;;;6198698;23;20012;-94
2022/09/12 07:20:43;;;;;;;19.63;11.55;;;17.20;1.00;;;;;;6223954;23;20364;-92
2022/09/12 09:31:36;;;;;;;15.95;8.70;;;19.70;1.00;;;;;;6221689;23;20044;-90
2022/09/12 09:35:23;;;;;;;12.38;6.63;;;20.00;1.00;;;;;;6247718;22;20054;-89
2022/09/12 09:38:52;;;;;;;6.72;4.53;;;20.00;1.00;;;;;;6221215;23;20017;-90
2022/09/12 10:14:41;;;;;;;13.05;8.10;;;20.20;1.00;;;;;;6242788;22;20039;-90
2022/09/12 10:22:11;;;;;;;11.32;6.55;;;20.50;1.00;;;;;;6063627;23;20035;-90
2022/09/12 10:38:58;;;;;;;13.57;7.97;;;20.80;1.00;;;;;;6160514;23;20021;-90
2022/09/12 10:42:54;;;;;;;10.32;5.93;;;20.90;1.00;;;;;;6137372;23;20032;-92
2022/09/12 10:45:43;;;;;;;9.50;6.15;;;21.00;1.00;;;;;;6186458;23;20024;-89
2022/09/12 12:52:16;;;;;;;5.15;3.60;;;23.00;1.00;;;;;;6246173;22;20411;-90
2022/09/12 12:54:43;;;;;;;5.93;3.00;;;23.10;1.00;;;;;;6197341;23;20020;-88
2022/09/12 12:57:28;;;;;;;4.03;3.35;;;23.10;1.00;;;;;;6221457;23;20016;-91
2022/09/12 13:04:12;;;;;;;3.80;2.63;;;23.10;1.00;;;;;;6228869;23;20115;-92
2022/09/12 13:11:42;;;;;;;4.35;2.83;;;23.30;1.00;;;;;;6248514;23;20087;-90
2022/09/12 13:14:51;;;;;;;4.57;2.33;;;23.30;1.00;;;;;;6227119;23;20071;-92
2022/09/12 13:29:39;;;;;;;2.95;1.77;;;23.60;1.00;;;;;;6193004;23;20575;-91
2022/09/12 13:37:48;;;;;;;;;;;;;;;;;;;;;
2022/09/12 13:41:24;;;;;;;6.38;1.77;;;23.70;1.00;;;;;;5988721;23;20007;-92
2022/09/12 13:49:27;;;;;;;3.90;1.50;;;23.70;1.00;;;;;;5974995;23;20001;-87
2022/09/12 13:52:02;;;;;;;3.53;2.13;;;23.80;1.00;;;;;;5956455;23;20020;-86
2022/09/12 13:54:30;;;;;;;2.53;1.70;;;23.90;1.00;;;;;;5989463;23;20043;-88
2022/09/12 13:56:58;;;;;;;2.90;1.95;;;23.80;1.00;;;;;;5986264;23;20004;-86
2022/09/12 13:59:25;;;;;;;3.65;1.45;;;23.90;1.00;;;;;;5983406;24;20030;-87
2022/09/12 14:01:52;;;;;;;3.38;1.55;;;24.00;1.00;;;;;;5982866;24;20098;-88
2022/09/12 14:50:25;;;;;;;2.35;1.80;;;24.90;1.00;;;;;;6081780;23;20048;-93
2022/09/12 15:06:39;;;;;;;3.65;2.28;;;25.70;1.00;;;;;;5998771;23;20513;-92
2022/09/12 15:09:37;;;;;;;6.65;2.35;;;25.70;1.00;;;;;;6015157;23;20035;-92
2022/09/12 15:12:22;;;;;;;3.60;1.85;;;25.90;1.00;;;;;;6008137;23;20027;-93
2022/09/12 15:15:05;;;;;;;4.50;2.67;;;25.80;1.00;;;;;;6068507;23;20023;-91
2022/09/12 15:17:44;;;;;;;2.90;1.38;;;25.80;1.00;;;;;;6096900;23;20015;-91
2022/09/12 15:20:13;;;;;;;2.20;1.55;;;25.70;1.00;;;;;;6098632;23;20049;-89
2022/09/12 15:22:41;;;;;;;5.50;1.70;;;25.70;1.00;;;;;;6072831;23;20466;-91
2022/09/12 15:25:20;;;;;;;3.65;1.80;;;25.70;1.00;;;;;;6049488;23;20077;-95
2022/09/12 15:28:13;;;;;;;3.65;1.50;;;25.60;1.00;;;;;;6168679;23;20322;-91
2022/09/12 15:30:54;;;;;;;3.03;1.40;;;25.60;1.00;;;;;;6191332;23;20031;-93
2022/09/12 15:33:24;;;;;;;4.00;2.08;;;25.90;1.00;;;;;;6192674;23;20071;-94
2022/09/12 15:35:59;;;;;;;2.75;1.92;;;26.00;1.00;;;;;;6169445;23;20340;-94
2022/09/12 15:38:52;;;;;;;2.70;1.50;;;25.80;1.00;;;;;;6172539;23;20027;-92
2022/09/12 15:41:46;;;;;;;4.72;2.08;;;25.90;1.00;;;;;;6169536;23;20020;-93
2022/09/12 15:44:25;;;;;;;2.92;1.75;;;25.90;1.00;;;;;;6168400;23;20103;-91
2022/09/12 15:46:54;;;;;;;2.38;2.15;;;25.90;1.00;;;;;;6168306;23;20047;-91
2022/09/12 15:49:38;;;;;;;3.65;1.90;;;25.70;1.00;;;;;;6173327;23;20016;-92
2022/09/12 15:52:51;;;;;;;3.67;1.75;;;25.60;1.00;;;;;;6172571;23;20099;-92
2022/09/12 15:56:07;;;;;;;2.65;1.40;;;25.70;1.00;;;;;;6176576;23;20511;-90
2022/09/12 15:58:34;;;;;;;2.65;2.05;;;25.50;1.00;;;;;;6193338;23;20036;-92
2022/09/12 16:01:01;;;;;;;5.28;1.77;;;25.20;1.00;;;;;;6191213;23;20043;-90
2022/09/12 16:03:35;;;;;;;2.13;1.55;;;25.20;1.00;;;;;;6193382;23;20012;-90
2022/09/12 16:06:40;;;;;;;2.80;1.80;;;25.10;1.00;;;;;;6167253;23;20072;-92
2022/09/12 16:09:29;;;;;;;2.40;1.42;;;25.20;1.00;;;;;;6192118;23;20028;-89
2022/09/12 16:12:39;;;;;;;2.00;1.33;;;25.10;1.00;;;;;;6195258;23;20055;-91
2022/09/12 16:15:26;;;;;;;3.20;1.42;;;25.10;1.00;;;;;;6192147;23;20020;-93
2022/09/12 16:18:18;;;;;;;2.67;1.67;;;25.00;1.00;;;;;;6192576;23;20016;-93
2022/09/12 16:21:55;;;;;;;4.47;2.33;;;25.00;1.00;;;;;;6169770;23;20013;-95
2022/09/12 16:25:04;;;;;;;4.30;1.92;;;24.80;1.00;;;;;;6198586;23;20725;-93
2022/09/12 16:27:53;;;;;;;2.72;1.90;;;24.60;1.00;;;;;;6211577;23;20020;-90
2022/09/12 16:30:37;;;;;;;2.15;1.67;;;24.60;1.00;;;;;;6194868;23;20019;-93
2022/09/12 16:33:38;;;;;;;2.20;1.33;;;24.60;1.00;;;;;;6216805;23;20017;-95
2022/09/12 16:41:41;;;;;;;2.10;1.52;;;24.40;1.00;;;;;;5996480;23;20019;-91
2022/09/12 16:44:59;;;;;;;3.22;1.90;;;24.40;1.00;;;;;;6032499;23;20138;-93
